Time;durP1;ratioP1;P1;durP2;ratioP2;P2;SDS_P1;SDS_P2;PMS_P1;PMS_P2;Temp;Humidity;BMP_temperature;BMP_pressure;BME280_temperature;BME280_humidity;BME280_pressure;Samples;Min_cycle;Max_cycle;Signal;HPM_P1;HPM_P2
2023/09/11 00:01:16;;;;;;;9.30;5.03;;;17.80;99.90;;;18.58;100.00;98161.75;5057660;28;20476;-80
2023/09/11 00:03:47;;;;;;;8.73;5.83;;;17.80;99.90;;;18.55;100.00;98154.28;5056912;28;21032;-81
2023/09/11 00:06:17;;;;;;;8.07;4.70;;;17.80;99.90;;;18.52;100.00;98149.44;5057036;28;20481;-81
2023/09/11 00:08:48;;;;;;;12.33;6.10;;;17.80;99.90;;;18.60;100.00;98150.94;5058073;28;20517;-80
2023/09/11 00:11:18;;;;;;;10.10;4.90;;;17.80;99.90;;;18.57;100.00;98157.47;5059491;28;20458;-80
2023/09/11 00:13:49;;;;;;;10.77;5.00;;;17.80;99.90;;;18.55;100.00;98153.47;5060520;28;20460;-80
2023/09/11 00:16:20;;;;;;;15.33;5.77;;;17.70;99.90;;;18.56;100.00;98155.91;5057136;28;20476;-80
2023/09/11 00:18:49;;;;;;;7.70;5.20;;;17.60;99.90;;;18.43;100.00;98150.81;5058012;28;20504;-80
2023/09/11 00:21:18;;;;;;;14.50;5.20;;;17.60;99.90;;;18.47;100.00;98145.84;5056908;28;21045;-80
2023/09/11 00:23:48;;;;;;;10.60;5.47;;;17.60;99.90;;;18.53;100.00;98143.09;5056905;28;20464;-80
2023/09/11 00:26:17;;;;;;;13.50;5.13;;;17.40;99.90;;;18.50;100.00;98140.91;5058103;28;20459;-81
2023/09/11 00:28:49;;;;;;;9.60;5.00;;;17.50;99.90;;;18.49;100.00;98147.25;5055858;28;20468;-81
2023/09/11 00:31:19;;;;;;;17.27;5.17;;;17.50;99.90;;;18.42;100.00;98146.56;5057020;28;20460;-81
2023/09/11 00:33:48;;;;;;;12.20;5.10;;;17.50;99.90;;;18.39;100.00;98146.25;5059446;28;20544;-81
2023/09/11 00:36:19;;;;;;;9.23;4.77;;;17.40;99.90;;;18.31;100.00;98133.34;5056296;28;20464;-80
2023/09/11 00:38:50;;;;;;;14.10;4.90;;;17.40;99.90;;;18.24;100.00;98130.84;5056047;28;20465;-81
2023/09/11 00:41:21;;;;;;;9.70;5.13;;;17.40;99.90;;;18.23;100.00;98131.06;5054553;28;20496;-80
2023/09/11 00:43:52;;;;;;;13.70;5.20;;;17.40;99.90;;;18.23;100.00;98129.22;5053084;28;20460;-81
2023/09/11 00:46:25;;;;;;;8.30;5.93;;;17.30;99.90;;;18.20;100.00;98126.25;5054495;28;20859;-81
2023/09/11 00:48:57;;;;;;;12.20;5.50;;;17.30;99.90;;;18.18;100.00;98120.38;5059306;28;20958;-81
2023/09/11 00:51:27;;;;;;;7.53;4.80;;;17.20;99.90;;;18.10;100.00;98122.34;5059822;28;20467;-81
2023/09/11 00:53:57;;;;;;;7.63;4.73;;;17.30;99.90;;;18.13;100.00;98123.72;5058439;28;20468;-81
2023/09/11 00:56:27;;;;;;;8.50;5.60;;;17.20;99.90;;;18.18;100.00;98126.50;5058963;28;20457;-80
2023/09/11 00:59:00;;;;;;;21.13;6.07;;;17.10;99.90;;;18.18;100.00;98120.38;5059571;28;20578;-80
2023/09/11 01:01:30;;;;;;;10.10;4.93;;;17.10;99.90;;;18.14;100.00;98114.75;5059065;28;20502;-80
2023/09/11 01:04:00;;;;;;;12.83;5.87;;;17.20;99.90;;;18.11;100.00;98112.56;5057859;28;20464;-80
2023/09/11 01:06:30;;;;;;;21.10;5.57;;;17.20;99.90;;;18.06;100.00;98109.81;5059401;28;20806;-80
2023/09/11 01:08:59;;;;;;;13.50;4.70;;;17.20;99.90;;;18.10;100.00;98103.81;5056465;28;20468;-81
2023/09/11 01:11:30;;;;;;;6.37;4.47;;;17.20;99.90;;;18.09;100.00;98111.97;5059899;28;20456;-82
2023/09/11 01:14:01;;;;;;;10.17;5.30;;;17.20;99.90;;;18.10;100.00;98109.13;5057144;28;20467;-80
2023/09/11 01:16:43;;;;;;;9.50;5.07;;;17.10;99.90;;;18.07;100.00;98112.22;5056797;28;20469;-81
2023/09/11 01:19:41;;;;;;;12.33;6.00;;;17.10;99.90;;;18.06;100.00;98107.97;5058582;28;20470;-82
2023/09/11 01:22:39;;;;;;;9.80;5.03;;;17.10;99.90;;;18.02;100.00;98111.31;5056824;28;21220;-80
2023/09/11 01:25:36;;;;;;;9.93;5.37;;;17.10;99.90;;;17.98;100.00;98110.16;5058319;28;20468;-81
2023/09/11 01:28:36;;;;;;;8.77;4.90;;;17.10;99.90;;;17.98;100.00;98116.25;5058000;28;20480;-81
2023/09/11 01:31:09;;;;;;;8.63;5.00;;;17.00;99.90;;;17.94;100.00;98119.63;5055932;28;20491;-81
2023/09/11 01:33:39;;;;;;;13.60;4.77;;;16.90;99.90;;;17.93;100.00;98118.00;5059453;28;20473;-81
2023/09/11 01:36:08;;;;;;;11.13;5.40;;;16.90;99.90;;;17.85;100.00;98115.69;5058984;28;20468;-81
2023/09/11 01:38:39;;;;;;;10.33;5.40;;;16.90;99.90;;;17.85;100.00;98119.16;5057972;28;20471;-81
2023/09/11 01:41:11;;;;;;;16.03;5.60;;;16.90;99.90;;;17.87;100.00;98117.09;5059500;28;20925;-82
2023/09/11 01:43:45;;;;;;;12.40;5.30;;;16.80;99.90;;;17.87;100.00;98119.75;5057687;28;20462;-80
2023/09/11 01:46:18;;;;;;;10.20;5.00;;;16.90;99.90;;;17.83;100.00;98115.94;5058305;28;20819;-81
2023/09/11 01:48:51;;;;;;;16.80;5.90;;;16.90;99.90;;;17.84;100.00;98116.75;5060475;28;20491;-81
2023/09/11 01:51:24;;;;;;;17.53;5.07;;;16.90;99.90;;;17.76;100.00;98114.44;5061406;28;20463;-80
2023/09/11 01:53:55;;;;;;;8.97;5.03;;;16.70;99.90;;;17.70;100.00;98110.09;5055900;28;20561;-81
2023/09/11 01:56:24;;;;;;;13.93;5.90;;;16.70;99.90;;;17.65;100.00;98104.66;5057298;28;20982;-81
2023/09/11 01:58:57;;;;;;;10.60;4.80;;;16.70;99.90;;;17.49;100.00;98104.28;5057862;28;20460;-81
2023/09/11 02:01:29;;;;;;;6.90;4.90;;;16.80;99.90;;;17.44;100.00;98108.66;5058745;28;20527;-80
2023/09/11 02:03:59;;;;;;;14.17;6.20;;;16.70;99.90;;;17.42;100.00;98111.53;5059294;28;20464;-81
2023/09/11 02:06:29;;;;;;;14.10;5.40;;;16.60;99.90;;;17.46;100.00;98112.69;5060017;28;20552;-80
2023/09/11 02:09:00;;;;;;;12.40;5.27;;;16.60;99.90;;;17.46;100.00;98111.88;5058805;28;20503;-81
2023/09/11 02:11:30;;;;;;;7.23;4.73;;;16.60;99.90;;;17.49;100.00;98108.78;5060509;28;20832;-81
2023/09/11 02:14:00;;;;;;;12.00;5.20;;;16.60;99.90;;;17.43;100.00;98113.13;5059467;28;20465;-81
2023/09/11 02:16:32;;;;;;;14.63;5.10;;;16.60;99.90;;;17.45;100.00;98105.81;5058577;28;20592;-80
2023/09/11 02:19:03;;;;;;;16.33;5.50;;;16.50;99.90;;;17.45;100.00;98100.50;5060405;28;20468;-81
2023/09/11 02:21:33;;;;;;;10.07;4.20;;;16.50;99.90;;;17.43;100.00;98101.75;5061172;28;20554;-80
2023/09/11 02:24:04;;;;;;;18.23;4.70;;;16.50;99.90;;;17.44;100.00;98100.72;5060334;28;20463;-80
2023/09/11 02:26:34;;;;;;;6.63;4.30;;;16.40;99.90;;;17.32;100.00;98089.34;5060251;28;20460;-79
2023/09/11 02:29:04;;;;;;;10.80;4.83;;;16.50;99.90;;;17.26;100.00;98093.69;5060174;28;20464;-81
2023/09/11 02:31:35;;;;;;;7.20;5.10;;;16.40;99.90;;;17.27;100.00;98082.09;5058915;28;20471;-81
2023/09/11 02:34:04;;;;;;;8.80;4.47;;;16.50;99.90;;;17.21;100.00;98083.03;5059010;28;20791;-80
2023/09/11 02:36:34;;;;;;;7.67;4.90;;;16.50;99.90;;;17.20;100.00;98080.59;5053978;28;20555;-80
2023/09/11 02:39:04;;;;;;;11.77;5.00;;;16.40;99.90;;;17.26;100.00;98084.97;5057784;28;20456;-81
2023/09/11 02:41:34;;;;;;;9.67;4.37;;;16.40;99.90;;;17.24;100.00;98081.75;5055320;28;21018;-80
2023/09/11 02:44:04;;;;;;;6.53;4.43;;;16.40;99.90;;;17.29;100.00;98089.78;5058122;28;20460;-81
2023/09/11 02:46:34;;;;;;;8.27;4.73;;;16.30;99.90;;;17.26;100.00;98091.06;5057353;28;20467;-81
2023/09/11 02:49:04;;;;;;;10.30;5.00;;;16.20;99.90;;;17.29;100.00;98090.59;5057821;28;20469;-83
2023/09/11 02:51:34;;;;;;;7.60;4.57;;;16.20;99.90;;;17.28;100.00;98093.50;5059624;28;20881;-81
2023/09/11 02:54:04;;;;;;;12.67;5.10;;;16.30;99.90;;;17.27;100.00;98091.88;5057837;28;20460;-81
2023/09/11 02:56:37;;;;;;;9.30;5.40;;;16.40;99.90;;;17.21;100.00;98082.22;5060342;28;20457;-82
2023/09/11 02:59:08;;;;;;;9.90;5.20;;;16.30;99.90;;;17.10;100.00;98086.44;5056844;28;20461;-81
2023/09/11 03:01:39;;;;;;;20.90;4.97;;;16.30;99.90;;;17.08;100.00;98080.56;5057614;28;20492;-80
2023/09/11 03:04:10;;;;;;;12.57;5.37;;;16.20;99.90;;;17.13;100.00;98083.34;5057027;28;20556;-81
2023/09/11 03:06:41;;;;;;;9.87;5.20;;;16.20;99.90;;;17.11;100.00;98082.78;5059951;28;20489;-80
2023/09/11 03:09:12;;;;;;;8.87;5.07;;;16.10;99.90;;;17.11;100.00;98077.50;5059543;28;20458;-80
2023/09/11 03:11:42;;;;;;;8.47;5.03;;;16.10;99.90;;;17.08;100.00;98072.63;5058448;28;20939;-80
2023/09/11 03:14:13;;;;;;;8.80;5.50;;;16.20;99.90;;;17.04;100.00;98077.56;5058975;28;20544;-81
2023/09/11 03:16:44;;;;;;;9.20;4.97;;;16.10;99.90;;;17.02;100.00;98079.66;5057162;28;20473;-81
2023/09/11 03:19:13;;;;;;;11.47;4.80;;;16.00;99.90;;;16.94;100.00;98079.16;5058254;28;20461;-81
2023/09/11 03:21:43;;;;;;;8.00;4.53;;;16.00;99.90;;;16.91;100.00;98075.16;5059261;28;20531;-81
2023/09/11 03:24:13;;;;;;;6.93;4.77;;;16.00;99.90;;;16.90;100.00;98075.38;5056920;28;20456;-81
2023/09/11 03:26:44;;;;;;;8.83;4.87;;;16.00;99.90;;;16.87;100.00;98065.28;5056659;28;20468;-81
2023/09/11 03:29:13;;;;;;;8.73;4.90;;;16.00;99.90;;;16.87;100.00;98071.34;5057680;28;20479;-80
2023/09/11 03:31:44;;;;;;;10.33;6.30;;;15.90;99.90;;;16.85;100.00;98072.59;5056916;28;20842;-80
2023/09/11 03:34:14;;;;;;;6.57;4.77;;;15.90;99.90;;;16.84;100.00;98063.88;5058455;28;20539;-81
2023/09/11 03:36:45;;;;;;;21.43;5.57;;;15.90;99.90;;;16.90;100.00;98064.81;5055224;28;20481;-80
2023/09/11 03:39:16;;;;;;;11.67;5.33;;;15.90;99.90;;;16.87;100.00;98060.00;5055135;28;20456;-81
2023/09/11 03:41:45;;;;;;;11.80;4.67;;;15.90;99.90;;;16.84;100.00;98060.41;5055236;28;20588;-80
2023/09/11 03:44:15;;;;;;;10.90;4.00;;;15.80;99.90;;;16.86;100.00;98059.19;5055433;28;20473;-81
2023/09/11 03:46:46;;;;;;;14.03;5.30;;;15.80;99.90;;;16.89;100.00;98057.91;5055083;28;20542;-81
2023/09/11 03:49:16;;;;;;;9.60;4.10;;;15.80;99.90;;;16.80;100.00;98057.44;5057760;28;20544;-81
2023/09/11 03:51:46;;;;;;;9.87;6.03;;;15.90;99.90;;;16.80;100.00;98051.38;5056056;28;20477;-81
2023/09/11 03:54:17;;;;;;;11.40;5.37;;;15.80;99.90;;;16.70;100.00;98049.25;5057352;28;20857;-81
2023/09/11 03:56:46;;;;;;;13.70;4.30;;;15.80;99.90;;;16.72;100.00;98041.91;5056200;28;20484;-81
2023/09/11 03:59:17;;;;;;;10.30;5.07;;;15.80;99.90;;;16.72;100.00;98046.41;5055525;28;20475;-81
2023/09/11 04:01:48;;;;;;;8.70;5.17;;;15.70;99.90;;;16.74;100.00;98047.78;5055539;28;20489;-81
2023/09/11 04:04:19;;;;;;;10.33;5.13;;;15.60;99.90;;;16.70;100.00;98048.44;5057162;28;20464;-81
2023/09/11 04:06:48;;;;;;;12.90;5.80;;;15.70;99.90;;;16.61;100.00;98047.97;5057660;28;20908;-80
2023/09/11 04:09:18;;;;;;;7.03;4.90;;;15.70;99.90;;;16.69;100.00;98050.31;5056653;28;20467;-80
2023/09/11 04:11:48;;;;;;;9.40;5.00;;;15.70;99.90;;;16.69;100.00;98046.84;5054636;28;20475;-80
2023/09/11 04:14:17;;;;;;;10.27;5.23;;;15.70;99.90;;;16.72;100.00;98044.56;5055363;28;20549;-81
2023/09/11 04:16:49;;;;;;;9.03;4.40;;;15.70;99.90;;;16.74;100.00;98049.59;5056533;28;20916;-81
2023/09/11 04:19:20;;;;;;;6.20;4.47;;;15.60;99.90;;;16.73;100.00;98042.72;5058000;28;20460;-81
2023/09/11 04:21:49;;;;;;;12.00;5.53;;;15.70;99.90;;;16.76;100.00;98043.09;5058076;28;20592;-81
2023/09/11 04:24:20;;;;;;;13.63;5.00;;;15.70;99.90;;;16.70;100.00;98046.59;5059999;28;20470;-80
2023/09/11 04:26:50;;;;;;;16.07;5.07;;;15.60;99.90;;;16.58;100.00;98051.88;5059467;28;20460;-81
2023/09/11 04:29:20;;;;;;;14.20;4.80;;;15.70;99.90;;;16.51;100.00;98045.84;5058914;28;21041;-81
2023/09/11 04:31:51;;;;;;;10.43;6.23;;;15.60;99.90;;;16.50;100.00;98038.94;5060993;28;20464;-80
2023/09/11 04:34:21;;;;;;;8.30;4.80;;;15.50;99.90;;;16.53;100.00;98038.50;5057365;28;20467;-81
2023/09/11 04:36:51;;;;;;;12.40;5.90;;;15.50;99.90;;;16.47;100.00;98044.69;5059226;28;20461;-81
2023/09/11 04:39:23;;;;;;;27.37;5.87;;;15.60;99.90;;;16.50;100.00;98044.22;5058342;28;20564;-81
2023/09/11 04:41:53;;;;;;;9.30;3.77;;;15.50;99.90;;;16.46;100.00;98037.78;5059850;28;20501;-81
2023/09/11 04:44:23;;;;;;;19.40;4.80;;;15.50;99.90;;;16.48;100.00;98035.75;5058627;28;20894;-82
2023/09/11 04:46:57;;;;;;;18.17;5.40;;;15.50;99.90;;;16.49;100.00;98033.88;5058716;28;20491;-81
2023/09/11 04:49:26;;;;;;;16.47;5.23;;;15.50;99.90;;;16.49;100.00;98033.88;5058278;28;20461;-81
2023/09/11 04:51:56;;;;;;;19.53;5.57;;;15.40;99.90;;;16.47;100.00;98031.47;5057535;28;20464;-81
2023/09/11 04:54:27;;;;;;;10.27;5.20;;;15.40;99.90;;;16.43;100.00;98034.78;5064861;28;20456;-80
2023/09/11 04:56:58;;;;;;;10.00;5.60;;;15.40;99.90;;;16.41;100.00;98032.38;5060762;28;24276;-81
2023/09/11 04:59:29;;;;;;;19.63;5.80;;;15.40;99.90;;;16.38;100.00;98035.44;5058668;28;20469;-81
2023/09/11 05:02:00;;;;;;;12.83;4.80;;;15.40;99.90;;;16.43;100.00;98032.16;5055690;28;20913;-81
2023/09/11 05:04:33;;;;;;;7.70;4.30;;;15.30;99.90;;;16.48;100.00;98037.56;5060732;28;21604;-81
2023/09/11 05:07:02;;;;;;;19.70;5.57;;;15.30;99.90;;;16.45;100.00;98045.94;5059165;28;20463;-81
2023/09/11 05:09:32;;;;;;;9.47;4.63;;;15.40;99.90;;;16.38;100.00;98035.44;5061149;28;20547;-81
2023/09/11 05:12:04;;;;;;;7.07;4.37;;;15.40;99.90;;;16.38;100.00;98040.72;5061324;28;20459;-81
2023/09/11 05:14:36;;;;;;;10.10;4.43;;;15.30;99.90;;;16.36;100.00;98047.28;5061690;28;20490;-81
2023/09/11 05:17:08;;;;;;;11.67;4.67;;;15.40;99.90;;;16.35;100.00;98038.53;5059175;28;20966;-81
2023/09/11 05:19:41;;;;;;;10.27;4.93;;;15.40;99.90;;;16.34;100.00;98036.94;5060029;28;20580;-80
2023/09/11 05:22:09;;;;;;;7.87;4.50;;;15.30;99.90;;;16.35;100.00;98038.53;5060493;28;20476;-80
2023/09/11 05:24:40;;;;;;;15.00;4.90;;;15.20;99.90;;;16.25;100.00;98048.03;5058260;28;20464;-79
2023/09/11 05:27:10;;;;;;;11.70;5.17;;;15.30;99.90;;;16.23;100.00;98042.16;5057260;28;22326;-81
2023/09/11 05:29:40;;;;;;;12.30;5.60;;;15.30;99.90;;;16.22;100.00;98041.38;5056996;28;20464;-80
2023/09/11 05:32:11;;;;;;;8.90;4.67;;;15.20;99.90;;;16.27;100.00;98044.16;5056323;28;20527;-81
2023/09/11 05:34:41;;;;;;;12.80;5.00;;;15.30;99.90;;;16.26;100.00;98045.16;5058614;28;20468;-81
2023/09/11 05:37:12;;;;;;;11.33;4.10;;;15.30;99.90;;;16.28;100.00;98045.75;5058753;28;20491;-81
2023/09/11 05:39:45;;;;;;;8.37;4.33;;;15.30;99.90;;;16.36;100.00;98048.06;5058340;28;20848;-81
2023/09/11 05:42:15;;;;;;;10.27;5.13;;;15.30;99.90;;;16.39;100.00;98050.28;5059046;28;20488;-81
2023/09/11 05:44:47;;;;;;;12.93;4.80;;;15.40;99.90;;;16.33;100.00;98043.25;5057783;28;20537;-80
2023/09/11 05:47:20;;;;;;;14.13;4.87;;;15.40;99.90;;;16.37;100.00;98047.06;5059037;28;20475;-80
2023/09/11 05:49:50;;;;;;;14.23;4.80;;;15.20;99.90;;;16.38;100.00;98047.88;5058270;28;20460;-80
2023/09/11 05:52:20;;;;;;;7.73;4.93;;;15.20;99.90;;;16.37;100.00;98047.06;5056253;28;20555;-81
2023/09/11 05:54:52;;;;;;;12.40;4.87;;;15.40;99.90;;;16.32;100.00;98052.19;5059676;28;20460;-81
2023/09/11 05:57:22;;;;;;;7.50;4.47;;;15.40;99.90;;;16.32;100.00;98051.38;5056878;28;20464;-80
2023/09/11 05:59:54;;;;;;;37.97;6.37;;;15.40;99.90;;;16.37;100.00;98054.16;5055646;28;20492;-81
2023/09/11 06:02:26;;;;;;;10.53;4.40;;;15.40;99.90;;;16.38;100.00;98061.84;5055067;28;20518;-80
2023/09/11 06:04:56;;;;;;;6.53;4.53;;;15.50;99.90;;;16.34;100.00;98055.44;5063807;28;20495;-80
2023/09/11 06:07:27;;;;;;;12.07;5.03;;;15.50;99.90;;;16.34;100.00;98068.63;5054398;28;20469;-81
2023/09/11 06:09:59;;;;;;;9.90;5.30;;;15.50;99.90;;;16.40;100.00;98059.81;5056880;28;20471;-81
2023/09/11 06:12:30;;;;;;;7.70;4.70;;;15.40;99.90;;;16.44;100.00;98058.34;5055516;28;20877;-81
2023/09/11 06:14:59;;;;;;;8.20;5.30;;;15.40;99.90;;;16.47;100.00;98060.53;5058362;28;20461;-81
2023/09/11 06:17:30;;;;;;;10.60;4.80;;;15.40;99.90;;;16.45;100.00;98059.94;5058532;28;20465;-81
2023/09/11 06:20:15;;;;;;;8.87;5.23;;;15.40;99.90;;;16.46;100.00;98056.25;5056794;28;21122;-81
2023/09/11 06:22:44;;;;;;;14.50;5.57;;;15.50;99.90;;;16.51;100.00;98060.88;5056846;28;20491;-81
2023/09/11 06:25:15;;;;;;;12.37;5.33;;;15.50;99.90;;;16.55;100.00;98057.59;5056377;28;20547;-81
2023/09/11 06:27:45;;;;;;;12.70;5.60;;;15.50;99.90;;;16.55;100.00;98054.97;5057275;28;20460;-81
2023/09/11 06:30:14;;;;;;;15.30;4.63;;;15.50;99.90;;;16.55;100.00;98062.06;5056046;28;20460;-80
2023/09/11 06:32:46;;;;;;;13.53;5.23;;;15.50;99.90;;;16.57;100.00;98062.66;5056737;28;20537;-81
2023/09/11 06:35:15;;;;;;;16.60;5.60;;;15.60;99.90;;;16.62;100.00;98054.06;5058673;28;20465;-81
2023/09/11 06:37:46;;;;;;;12.00;5.50;;;15.60;99.90;;;16.63;100.00;98051.19;5057780;28;20456;-81
2023/09/11 06:40:16;;;;;;;16.80;5.87;;;15.60;99.90;;;16.67;100.00;98054.97;5057597;28;20499;-81
2023/09/11 06:42:47;;;;;;;10.27;4.70;;;15.70;99.90;;;16.69;100.00;98058.22;5055699;28;20485;-80
2023/09/11 06:45:17;;;;;;;8.13;4.70;;;15.80;99.90;;;16.75;100.00;98057.31;5052925;28;20488;-80
2023/09/11 06:47:48;;;;;;;11.40;4.97;;;15.80;99.90;;;16.81;100.00;98055.59;5054832;28;20460;-80
2023/09/11 06:50:19;;;;;;;11.97;5.57;;;15.80;99.90;;;16.85;100.00;98056.75;5054597;28;20463;-80
2023/09/11 06:52:50;;;;;;;11.70;4.70;;;15.80;99.90;;;16.90;100.00;98051.63;5053679;28;20461;-81
2023/09/11 06:55:19;;;;;;;6.90;4.90;;;15.80;99.90;;;16.95;100.00;98041.97;5053731;28;20461;-80
2023/09/11 06:57:58;;;;;;;9.73;4.87;;;15.90;99.90;;;17.01;100.00;98048.16;5054370;28;20816;-80
2023/09/11 07:00:27;;;;;;;10.37;5.43;;;16.00;99.90;;;17.03;100.00;98041.63;5052740;28;20483;-81
2023/09/11 07:02:59;;;;;;;11.83;4.73;;;16.00;99.90;;;17.06;100.00;98046.47;5054493;28;20484;-81
2023/09/11 07:05:29;;;;;;;12.33;5.20;;;16.10;99.90;;;17.10;100.00;98036.25;5053864;28;20460;-81
2023/09/11 07:07:59;;;;;;;9.20;5.27;;;16.10;99.90;;;17.13;100.00;98042.91;5054478;28;20509;-80
2023/09/11 07:10:29;;;;;;;12.30;5.50;;;16.20;99.90;;;17.17;100.00;98041.41;5052571;28;20860;-79
2023/09/11 07:13:10;;;;;;;10.53;4.70;;;16.20;99.90;;;17.21;100.00;98035.44;5053409;28;21496;-79
2023/09/11 07:15:40;;;;;;;14.53;4.90;;;16.30;99.90;;;17.26;100.00;98037.38;5053911;28;20492;-79
2023/09/11 07:18:10;;;;;;;8.80;4.23;;;16.30;99.90;;;17.31;100.00;98035.69;5056721;28;20467;-80
2023/09/11 07:20:46;;;;;;;12.90;5.10;;;16.40;99.90;;;17.37;100.00;98028.66;5054898;28;20471;-80
2023/09/11 07:23:16;;;;;;;11.83;4.53;;;16.40;99.90;;;17.42;100.00;98032.19;5054702;28;20488;-80
2023/09/11 07:25:44;;;;;;;11.67;6.17;;;16.50;99.90;;;17.46;100.00;98030.72;5058897;28;20469;-79
2023/09/11 07:28:24;;;;;;;12.63;5.17;;;16.50;99.90;;;17.53;100.00;98023.47;5057919;28;20471;-80
2023/09/11 07:30:53;;;;;;;13.20;5.73;;;16.60;99.90;;;17.57;100.00;98035.22;5057770;28;20464;-80
2023/09/11 07:33:25;;;;;;;9.97;5.13;;;16.60;99.90;;;17.64;100.00;98036.94;5057339;28;20962;-80
2023/09/11 07:35:55;;;;;;;13.80;6.47;;;16.70;99.90;;;17.69;100.00;98032.56;5057083;28;20460;-79
2023/09/11 07:38:25;;;;;;;11.40;5.10;;;16.70;99.90;;;17.74;100.00;98031.84;5056852;28;21013;-79
2023/09/11 07:40:57;;;;;;;16.73;5.40;;;16.70;99.90;;;17.81;100.00;98035.19;5057922;28;22198;-79
2023/09/11 07:43:26;;;;;;;12.07;5.27;;;16.80;99.90;;;17.86;100.00;98032.66;5056558;28;20493;-80
2023/09/11 07:45:55;;;;;;;8.83;4.53;;;16.90;99.90;;;17.92;100.00;98037.00;5056972;28;20460;-80
2023/09/11 07:48:27;;;;;;;15.60;4.90;;;16.90;99.90;;;17.98;100.00;98026.28;5055279;28;21452;-79
2023/09/11 07:50:57;;;;;;;14.40;5.50;;;17.00;99.90;;;18.05;100.00;98026.16;5057380;28;20495;-80
2023/09/11 07:53:28;;;;;;;15.20;5.80;;;17.10;99.90;;;18.10;100.00;98026.25;5055686;28;20468;-79
2023/09/11 07:55:57;;;;;;;12.77;5.00;;;17.20;99.90;;;18.16;100.00;98025.31;5054198;28;20827;-79
2023/09/11 07:58:28;;;;;;;58.13;28.03;;;17.20;99.90;;;18.22;100.00;98029.69;5054410;28;20970;-79
2023/09/11 08:00:59;;;;;;;9.60;5.80;;;17.30;99.90;;;18.28;100.00;98025.28;5054762;28;20570;-79
2023/09/11 08:03:32;;;;;;;11.73;5.17;;;17.40;99.90;;;18.34;100.00;98035.72;5056139;28;20488;-79
2023/09/11 08:06:04;;;;;;;10.27;5.00;;;17.40;99.90;;;18.38;100.00;98028.09;5054120;28;20480;-79
2023/09/11 08:08:34;;;;;;;8.87;5.27;;;17.50;99.90;;;18.42;100.00;98030.06;5057266;28;20468;-79
2023/09/11 08:11:15;;;;;;;22.17;10.87;;;17.60;99.90;;;18.48;100.00;98020.34;5055266;28;20503;-79
2023/09/11 08:13:46;;;;;;;16.00;6.60;;;17.60;99.90;;;18.52;100.00;98024.97;5053265;28;20468;-79
2023/09/11 08:16:16;;;;;;;16.93;5.57;;;17.70;99.90;;;18.58;100.00;98025.84;5055758;28;20480;-79
2023/09/11 08:18:48;;;;;;;17.73;5.13;;;17.70;99.90;;;18.65;100.00;98020.41;5054746;28;20464;-78
2023/09/11 08:21:19;;;;;;;25.90;13.00;;;17.80;99.90;;;18.71;100.00;98022.13;5055949;28;20495;-79
2023/09/11 08:23:50;;;;;;;10.13;6.20;;;17.90;99.90;;;18.76;100.00;98027.47;5056609;28;20542;-80
2023/09/11 08:26:20;;;;;;;13.63;5.97;;;17.90;99.90;;;18.81;100.00;98022.28;5056270;28;20516;-79
2023/09/11 08:28:50;;;;;;;13.60;6.37;;;18.00;99.90;;;18.87;100.00;98023.97;5056986;28;20544;-80
2023/09/11 08:31:20;;;;;;;18.90;5.80;;;18.00;99.90;;;18.95;100.00;98020.91;5058666;28;20461;-79
2023/09/11 08:33:54;;;;;;;7.07;4.40;;;18.10;99.90;;;19.01;100.00;98020.75;5057193;28;20551;-79
2023/09/11 08:36:25;;;;;;;9.90;5.27;;;18.20;99.90;;;19.11;100.00;98025.41;5058934;28;20518;-79
2023/09/11 08:38:56;;;;;;;11.13;5.17;;;18.40;99.90;;;19.17;100.00;98018.31;5058312;28;20468;-79
2023/09/11 08:41:26;;;;;;;17.33;4.60;;;18.40;99.90;;;19.22;100.00;98011.25;5059314;28;20464;-80
2023/09/11 08:43:57;;;;;;;9.43;4.30;;;18.40;99.90;;;19.30;100.00;98018.78;5057676;28;21002;-80
2023/09/11 08:46:33;;;;;;;57.03;30.67;;;18.50;99.90;;;19.37;100.00;98016.78;5053635;28;20579;-79
2023/09/11 08:49:11;;;;;;;19.50;9.20;;;18.60;99.90;;;19.46;100.00;98020.66;5055035;28;20491;-79
2023/09/11 08:51:50;;;;;;;20.83;11.40;;;18.70;99.90;;;19.50;100.00;98016.47;5056630;28;20475;-79
2023/09/11 08:54:25;;;;;;;13.83;7.03;;;18.80;99.90;;;19.57;100.00;98009.16;5055837;28;20452;-79
2023/09/11 08:56:57;;;;;;;14.53;6.00;;;18.80;99.90;;;19.64;100.00;98011.63;5056135;28;20563;-79
2023/09/11 08:59:30;;;;;;;12.07;5.80;;;18.90;99.90;;;19.71;100.00;98011.44;5056902;28;20460;-80
2023/09/11 09:02:02;;;;;;;12.90;4.80;;;19.00;99.90;;;19.77;100.00;98007.78;5054309;28;20850;-80
2023/09/11 09:04:35;;;;;;;8.33;4.70;;;19.00;99.90;;;19.84;100.00;98011.06;5055636;28;20485;-79
2023/09/11 09:07:08;;;;;;;9.43;4.67;;;19.20;99.90;;;19.89;100.00;98016.41;5057254;28;20451;-80
2023/09/11 09:09:38;;;;;;;9.67;5.13;;;19.20;99.90;;;19.97;100.00;98024.75;5061706;28;20479;-80
2023/09/11 09:12:07;;;;;;;12.90;6.20;;;19.30;99.90;;;20.03;100.00;98022.97;5060172;28;20505;-80
2023/09/11 09:14:39;;;;;;;7.80;4.60;;;19.40;99.90;;;20.08;100.00;98015.06;5060000;28;20547;-80
2023/09/11 09:17:08;;;;;;;15.40;4.63;;;19.50;99.90;;;20.15;100.00;98012.22;5060323;28;20477;-80
2023/09/11 09:19:39;;;;;;;7.03;4.13;;;19.50;99.90;;;20.24;100.00;98014.19;5060603;28;20464;-79
2023/09/11 09:22:10;;;;;;;15.50;5.60;;;19.60;99.90;;;20.29;100.00;98011.63;5061196;28;20474;-80
2023/09/11 09:24:50;;;;;;;23.13;4.10;;;19.60;99.90;;;20.37;100.00;98002.41;5061660;28;20849;-79
2023/09/11 09:27:21;;;;;;;13.80;5.20;;;19.80;99.90;;;20.43;100.00;97996.88;5061060;28;20547;-80
2023/09/11 09:29:52;;;;;;;20.17;5.23;;;19.80;99.90;;;20.50;100.00;98002.78;5061570;28;21009;-80
2023/09/11 09:32:22;;;;;;;26.87;4.83;;;19.90;99.90;;;20.57;100.00;97992.78;5061880;28;20447;-80
2023/09/11 09:34:55;;;;;;;12.43;4.43;;;20.00;99.90;;;20.66;100.00;97989.63;5061341;28;20468;-80
2023/09/11 09:37:25;;;;;;;11.03;4.37;;;20.00;99.90;;;20.75;100.00;97994.25;5059971;28;20460;-80
2023/09/11 09:39:55;;;;;;;14.40;5.10;;;20.20;99.90;;;20.83;100.00;97984.97;5059727;28;20995;-79
2023/09/11 09:42:38;;;;;;;7.67;4.47;;;20.20;99.90;;;20.91;100.00;97981.88;5061282;28;20951;-80
2023/09/11 09:45:08;;;;;;;12.43;4.07;;;20.30;99.90;;;20.99;100.00;97981.41;5060109;28;20469;-80
2023/09/11 09:47:39;;;;;;;16.00;4.87;;;20.40;99.90;;;21.05;100.00;97983.03;5060414;28;20464;-80
2023/09/11 09:50:12;;;;;;;25.33;3.90;;;20.50;99.90;;;21.14;100.00;97980.75;5061069;28;20466;-80
2023/09/11 09:52:45;;;;;;;8.33;4.03;;;20.60;99.90;;;21.22;100.00;97983.72;5060136;28;20473;-80
2023/09/11 09:55:17;;;;;;;12.67;4.70;;;20.70;99.90;;;21.32;100.00;97978.44;5060869;28;20485;-80
2023/09/11 09:57:48;;;;;;;11.13;4.70;;;20.80;99.90;;;21.39;100.00;97970.25;5062611;28;20461;-79
2023/09/11 10:00:20;;;;;;;12.20;4.33;;;20.90;99.90;;;21.49;100.00;97978.28;5059217;28;20495;-80
2023/09/11 10:02:49;;;;;;;10.50;4.43;;;21.00;99.90;;;21.58;100.00;97971.41;5059635;28;21176;-80
2023/09/11 10:05:23;;;;;;;7.47;3.90;;;21.00;99.90;;;21.68;100.00;97970.66;5059070;28;20495;-80
2023/09/11 10:07:52;;;;;;;8.90;4.03;;;21.10;99.90;;;21.74;100.00;97969.59;5059653;28;20460;-80
2023/09/11 10:10:27;;;;;;;15.87;5.00;;;21.20;99.90;;;21.82;100.00;97969.13;5060503;28;20464;-80
2023/09/11 10:13:07;;;;;;;17.23;4.77;;;21.30;99.90;;;21.94;100.00;97967.03;5061941;28;20456;-80
2023/09/11 10:15:39;;;;;;;10.13;6.07;;;21.40;99.90;;;22.01;100.00;97964.94;5060829;28;20818;-80
2023/09/11 10:18:10;;;;;;;14.30;4.17;;;21.50;99.90;;;22.06;100.00;97962.31;5059539;28;20942;-80
2023/09/11 10:20:41;;;;;;;17.23;4.20;;;21.50;99.90;;;22.13;100.00;97962.03;5060084;28;20452;-80
2023/09/11 10:23:11;;;;;;;18.83;4.70;;;21.60;99.90;;;22.19;100.00;97961.78;5060402;28;20474;-79
2023/09/11 10:25:45;;;;;;;6.57;4.20;;;21.70;99.90;;;22.25;100.00;97965.28;5059494;28;20524;-81